Time;durP1;ratioP1;P1;durP2;ratioP2;P2;SDS_P1;SDS_P2;PMS_P1;PMS_P2;Temp;Humidity;BMP_temperature;BMP_pressure;BME280_temperature;BME280_humidity;BME280_pressure;Samples;Min_cycle;Max_cycle;Signal;HPM_P1;HPM_P2
2023/07/13 00:00:15;;;;;;;12.05;2.70;;;16.80;99.90;;;;;;5019065;28;20099;-47
2023/07/13 00:02:42;;;;;;;12.95;2.80;;;16.80;99.90;;;;;;5000391;28;20049;-46
2023/07/13 00:05:08;;;;;;;12.85;3.42;;;16.70;99.90;;;;;;5020939;28;20045;-47
2023/07/13 00:07:34;;;;;;;16.25;3.60;;;16.70;99.90;;;;;;4999678;28;20047;-49
2023/07/13 00:10:01;;;;;;;12.63;3.10;;;16.70;99.90;;;;;;5016087;28;20038;-48
2023/07/13 00:12:33;;;;;;;17.50;3.53;;;16.70;99.90;;;;;;5002500;28;20444;-46
2023/07/13 00:15:00;;;;;;;16.45;3.42;;;16.70;99.90;;;;;;5017402;28;20589;-46
2023/07/13 00:17:27;;;;;;;11.63;3.50;;;16.70;99.90;;;;;;5016679;28;20089;-47
2023/07/13 00:19:53;;;;;;;11.63;2.72;;;16.70;99.90;;;;;;5020970;28;20498;-46
2023/07/13 00:22:19;;;;;;;9.70;2.97;;;16.70;99.90;;;;;;5020379;28;20045;-48
2023/07/13 00:24:45;;;;;;;16.00;3.25;;;16.70;99.90;;;;;;5020951;28;20048;-48
2023/07/13 00:27:12;;;;;;;13.85;4.05;;;16.70;99.90;;;;;;5020290;28;20111;-47
2023/07/13 00:29:38;;;;;;;14.68;3.65;;;16.70;99.90;;;;;;5003890;28;20085;-47
2023/07/13 00:32:05;;;;;;;12.75;3.28;;;16.70;99.90;;;;;;5020533;28;20053;-48
2023/07/13 00:34:31;;;;;;;16.83;3.55;;;16.80;99.90;;;;;;5020969;28;20381;-46
2023/07/13 00:36:57;;;;;;;15.82;3.58;;;16.80;99.90;;;;;;5019655;28;20480;-47
2023/07/13 00:39:24;;;;;;;14.63;3.10;;;16.80;99.90;;;;;;5018429;28;20037;-50
2023/07/13 00:41:50;;;;;;;11.73;3.47;;;16.80;99.90;;;;;;5022994;28;20041;-46
2023/07/13 00:44:23;;;;;;;14.25;2.95;;;16.80;99.90;;;;;;5003723;28;20137;-47
2023/07/13 00:46:49;;;;;;;12.90;3.22;;;16.80;99.90;;;;;;5017780;28;20388;-49
2023/07/13 00:49:18;;;;;;;10.73;3.08;;;16.80;99.90;;;;;;5020416;28;20103;-49
2023/07/13 00:51:51;;;;;;;12.40;3.63;;;16.80;99.90;;;;;;5018457;28;20037;-50
2023/07/13 00:54:32;;;;;;;12.35;3.15;;;16.70;99.90;;;;;;5017077;28;21066;-47
2023/07/13 00:57:01;;;;;;;10.68;3.30;;;16.70;99.90;;;;;;5020270;28;20484;-51
2023/07/13 00:59:27;;;;;;;14.07;3.20;;;16.70;99.90;;;;;;5019916;28;20041;-50
2023/07/13 01:01:53;;;;;;;16.83;3.85;;;16.70;99.90;;;;;;5017043;28;20499;-49
2023/07/13 01:04:19;;;;;;;12.75;3.42;;;16.70;99.90;;;;;;5015744;28;20474;-50
2023/07/13 01:06:46;;;;;;;10.02;3.22;;;16.70;99.90;;;;;;4999024;28;20033;-49
2023/07/13 01:09:13;;;;;;;16.35;3.28;;;16.70;99.90;;;;;;5015530;28;20038;-47
2023/07/13 01:11:41;;;;;;;17.05;3.45;;;16.60;99.90;;;;;;4989829;28;20136;-48
2023/07/13 01:14:07;;;;;;;14.23;3.72;;;16.60;99.90;;;;;;5022458;28;20037;-48
2023/07/13 01:16:35;;;;;;;12.57;3.35;;;16.60;99.90;;;;;;5016092;28;20053;-46
2023/07/13 01:19:03;;;;;;;13.63;3.58;;;16.60;99.90;;;;;;5018012;28;20120;-48
2023/07/13 01:21:32;;;;;;;18.00;3.72;;;16.60;99.90;;;;;;5001727;28;20180;-47
2023/07/13 01:23:58;;;;;;;13.93;3.05;;;16.60;99.90;;;;;;5020989;28;20124;-48
2023/07/13 01:26:23;;;;;;;12.85;3.47;;;16.50;99.90;;;;;;5001816;28;20176;-51
2023/07/13 01:28:49;;;;;;;16.27;3.72;;;16.50;99.90;;;;;;5018309;28;20037;-46
2023/07/13 01:31:15;;;;;;;12.73;3.67;;;16.50;99.90;;;;;;5019048;28;20030;-48
2023/07/13 01:33:41;;;;;;;12.75;3.65;;;16.50;99.90;;;;;;5018191;28;20033;-49
2023/07/13 01:36:09;;;;;;;14.25;3.50;;;16.50;99.90;;;;;;5018873;28;20065;-48
2023/07/13 01:38:35;;;;;;;11.43;3.55;;;16.50;99.90;;;;;;5016838;28;20038;-46
2023/07/13 01:41:01;;;;;;;12.88;3.55;;;16.50;99.90;;;;;;4984236;28;20052;-46
2023/07/13 01:43:27;;;;;;;12.82;3.72;;;16.50;99.90;;;;;;5016365;28;20042;-49
2023/07/13 01:45:53;;;;;;;14.20;3.47;;;16.50;99.90;;;;;;5013720;28;20041;-49
2023/07/13 01:48:19;;;;;;;11.88;3.38;;;16.50;99.90;;;;;;5016992;28;20040;-50
2023/07/13 01:50:47;;;;;;;12.80;3.10;;;16.50;99.90;;;;;;5016599;28;20044;-46
2023/07/13 01:53:12;;;;;;;10.90;3.20;;;16.50;99.90;;;;;;5015143;28;20695;-48
2023/07/13 01:55:38;;;;;;;8.00;3.08;;;16.50;99.90;;;;;;4999195;28;20041;-46
2023/07/13 01:58:05;;;;;;;10.95;3.35;;;16.40;99.90;;;;;;5015688;28;20384;-47
2023/07/13 02:00:31;;;;;;;8.15;2.80;;;16.40;99.90;;;;;;5015252;28;20557;-46
2023/07/13 02:02:56;;;;;;;7.53;2.55;;;16.50;99.90;;;;;;5017017;28;20259;-50
2023/07/13 02:05:22;;;;;;;7.70;2.20;;;16.50;99.90;;;;;;5020472;28;20479;-49
2023/07/13 02:07:48;;;;;;;6.85;1.77;;;16.50;99.90;;;;;;5015935;28;20049;-48
2023/07/13 02:10:15;;;;;;;5.90;1.77;;;16.50;99.90;;;;;;5019098;28;20448;-51
2023/07/13 02:12:41;;;;;;;9.38;1.88;;;16.50;99.90;;;;;;5000010;28;20056;-47
2023/07/13 02:15:07;;;;;;;4.90;1.63;;;16.50;99.90;;;;;;5019667;28;20037;-47
2023/07/13 02:17:34;;;;;;;4.57;1.55;;;16.50;99.90;;;;;;5018866;28;20069;-49
2023/07/13 02:20:00;;;;;;;8.18;2.15;;;16.50;99.90;;;;;;5019892;28;20114;-46
2023/07/13 02:22:26;;;;;;;11.27;2.20;;;16.50;99.90;;;;;;5019256;28;20065;-48
2023/07/13 02:24:52;;;;;;;8.07;2.10;;;16.50;99.90;;;;;;5021266;28;20052;-49
2023/07/13 02:27:18;;;;;;;5.07;1.98;;;16.40;99.90;;;;;;5017993;28;20092;-47
2023/07/13 02:29:44;;;;;;;11.57;2.25;;;16.40;99.90;;;;;;5000809;28;20045;-47
2023/07/13 02:32:10;;;;;;;7.18;2.00;;;16.40;99.90;;;;;;5020882;28;20388;-48
2023/07/13 02:34:35;;;;;;;7.97;2.08;;;16.30;99.90;;;;;;5017598;28;20096;-50
2023/07/13 02:37:01;;;;;;;6.32;1.77;;;16.30;99.90;;;;;;5018921;28;20030;-51
2023/07/13 02:39:28;;;;;;;7.75;1.80;;;16.30;99.90;;;;;;5019978;28;20192;-49
2023/07/13 02:41:53;;;;;;;5.90;1.50;;;16.30;99.90;;;;;;5017314;28;20133;-50
2023/07/13 02:44:19;;;;;;;4.80;1.67;;;16.20;99.90;;;;;;5021594;28;20468;-48
2023/07/13 02:46:45;;;;;;;6.07;1.60;;;16.20;99.90;;;;;;5016716;28;21617;-48
2023/07/13 02:49:11;;;;;;;4.80;1.70;;;16.20;99.90;;;;;;5021414;28;20045;-49
2023/07/13 02:51:36;;;;;;;6.32;1.77;;;16.20;99.90;;;;;;5017114;28;20057;-51
2023/07/13 02:54:04;;;;;;;8.13;2.17;;;16.10;99.90;;;;;;5016247;28;20464;-51
2023/07/13 02:56:31;;;;;;;6.00;2.30;;;16.10;99.90;;;;;;5017295;28;20037;-47
2023/07/13 02:58:57;;;;;;;8.02;2.40;;;16.10;99.90;;;;;;5018645;28;20519;-49
2023/07/13 03:01:23;;;;;;;7.57;2.72;;;16.00;99.90;;;;;;5003318;28;20464;-48
2023/07/13 03:03:50;;;;;;;8.13;2.42;;;16.10;99.90;;;;;;5016077;28;20092;-48
2023/07/13 03:06:17;;;;;;;7.88;2.42;;;16.00;99.90;;;;;;5020661;28;20047;-47
2023/07/13 03:08:44;;;;;;;8.27;2.90;;;16.00;99.90;;;;;;5017199;28;20046;-49
2023/07/13 03:11:16;;;;;;;9.45;2.80;;;16.00;99.90;;;;;;5014789;28;20149;-48
2023/07/13 03:13:42;;;;;;;11.90;3.17;;;16.00;99.90;;;;;;5018153;28;21892;-47
2023/07/13 03:16:09;;;;;;;8.07;2.58;;;15.90;99.90;;;;;;5017604;28;20033;-47
2023/07/13 03:18:36;;;;;;;12.45;3.25;;;15.90;99.90;;;;;;5017958;28;20045;-51
2023/07/13 03:21:03;;;;;;;13.75;3.60;;;15.90;99.90;;;;;;4997641;28;20484;-51
2023/07/13 03:23:29;;;;;;;17.48;3.70;;;15.90;99.90;;;;;;5019158;28;20038;-49
2023/07/13 03:26:20;;;;;;;11.70;3.30;;;15.90;99.90;;;;;;5017592;28;20153;-48
2023/07/13 03:28:46;;;;;;;11.60;3.70;;;15.90;99.90;;;;;;5016147;28;20042;-51
2023/07/13 03:31:20;;;;;;;10.15;3.70;;;15.80;99.90;;;;;;5019943;28;20610;-51
2023/07/13 03:33:47;;;;;;;17.15;4.40;;;15.80;99.90;;;;;;5017880;28;20551;-50
2023/07/13 03:36:20;;;;;;;15.40;4.60;;;15.80;99.90;;;;;;5015254;28;20041;-50
2023/07/13 03:38:52;;;;;;;17.33;4.57;;;15.90;99.90;;;;;;5017907;28;20051;-51
2023/07/13 03:41:17;;;;;;;16.70;4.50;;;15.90;99.90;;;;;;5017524;28;20038;-48
2023/07/13 03:43:43;;;;;;;20.85;4.75;;;15.90;99.90;;;;;;4996804;28;20060;-49
2023/07/13 03:46:09;;;;;;;12.15;4.00;;;15.90;99.90;;;;;;5017326;28;20042;-50
2023/07/13 03:48:36;;;;;;;14.43;4.65;;;15.90;99.90;;;;;;5014941;28;21178;-49
2023/07/13 03:51:02;;;;;;;14.45;4.00;;;15.90;99.90;;;;;;5016512;28;20092;-48
2023/07/13 03:53:27;;;;;;;15.07;4.60;;;16.00;99.90;;;;;;5017433;28;20228;-49
2023/07/13 03:55:53;;;;;;;12.90;4.03;;;15.90;99.90;;;;;;5017280;28;21282;-51
2023/07/13 03:58:37;;;;;;;16.58;4.10;;;16.00;99.90;;;;;;5015558;28;20057;-52
2023/07/13 04:01:05;;;;;;;13.75;3.95;;;16.00;99.90;;;;;;4998498;28;20440;-50
2023/07/13 04:03:32;;;;;;;10.50;3.60;;;15.90;99.90;;;;;;5001892;28;20037;-48
2023/07/13 04:06:00;;;;;;;13.73;3.90;;;16.00;99.90;;;;;;5015325;28;20045;-47
2023/07/13 04:08:30;;;;;;;16.23;4.30;;;16.00;99.90;;;;;;5001902;28;20046;-49
2023/07/13 04:10:57;;;;;;;16.30;3.60;;;15.90;99.90;;;;;;5019648;28;20037;-48
2023/07/13 04:13:23;;;;;;;16.90;3.95;;;16.00;99.90;;;;;;5021915;28;20408;-49
2023/07/13 04:15:49;;;;;;;13.23;4.65;;;16.00;99.90;;;;;;4999855;28;20041;-47
2023/07/13 04:18:15;;;;;;;11.57;3.28;;;16.00;99.90;;;;;;5021315;28;20615;-50
2023/07/13 04:20:40;;;;;;;16.75;4.68;;;16.00;99.90;;;;;;5020729;28;20381;-50
2023/07/13 04:23:06;;;;;;;16.63;4.00;;;15.90;99.90;;;;;;5021826;28;20044;-50
2023/07/13 04:25:32;;;;;;;19.38;4.20;;;15.90;99.90;;;;;;5022751;28;20088;-49
2023/07/13 04:27:58;;;;;;;19.83;3.97;;;16.00;99.90;;;;;;5022099;28;20472;-48
2023/07/13 04:30:24;;;;;;;13.90;3.90;;;15.90;99.90;;;;;;5021920;28;20484;-48
2023/07/13 04:32:52;;;;;;;17.45;4.18;;;16.00;99.90;;;;;;5022225;28;20091;-47
2023/07/13 04:35:20;;;;;;;13.70;4.20;;;16.00;99.90;;;;;;5019548;28;20374;-48
2023/07/13 04:37:48;;;;;;;13.05;4.03;;;16.00;99.90;;;;;;4987805;28;20037;-49
2023/07/13 04:40:14;;;;;;;15.63;4.45;;;16.00;99.90;;;;;;5022404;28;20045;-47
2023/07/13 04:42:40;;;;;;;15.43;4.00;;;16.00;99.90;;;;;;5003079;28;20491;-47
2023/07/13 04:45:08;;;;;;;12.77;3.83;;;16.00;99.90;;;;;;5002328;28;20046;-49
2023/07/13 04:47:34;;;;;;;18.13;4.50;;;16.00;99.90;;;;;;4984811;28;20040;-48
2023/07/13 04:50:00;;;;;;;16.25;4.15;;;16.10;99.90;;;;;;5019644;28;20042;-50
2023/07/13 04:52:25;;;;;;;14.30;4.05;;;16.10;99.90;;;;;;4990745;28;20090;-47
2023/07/13 04:54:51;;;;;;;18.27;4.20;;;16.10;99.90;;;;;;5019245;28;20037;-47
2023/07/13 04:57:17;;;;;;;12.15;3.70;;;16.10;99.90;;;;;;5016924;28;20114;-48
2023/07/13 04:59:42;;;;;;;12.55;4.07;;;16.20;99.90;;;;;;5018505;28;20046;-46
2023/07/13 05:02:08;;;;;;;17.63;3.90;;;16.20;99.90;;;;;;5016369;28;20088;-51
2023/07/13 05:04:34;;;;;;;13.73;3.85;;;16.30;99.90;;;;;;5002741;28;20077;-48
2023/07/13 05:07:00;;;;;;;12.35;3.65;;;16.30;99.90;;;;;;5012369;28;20081;-51
2023/07/13 05:09:26;;;;;;;13.68;3.88;;;16.30;99.90;;;;;;4998695;28;20100;-50
2023/07/13 05:11:52;;;;;;;15.82;4.20;;;16.40;99.90;;;;;;4998022;28;20068;-50
2023/07/13 05:14:18;;;;;;;14.20;3.88;;;16.50;99.90;;;;;;4985251;28;20040;-47
2023/07/13 05:16:43;;;;;;;15.75;4.22;;;16.50;99.90;;;;;;4996104;28;20084;-48
2023/07/13 05:19:10;;;;;;;11.00;3.70;;;16.50;99.90;;;;;;5015590;28;20471;-49
2023/07/13 05:21:36;;;;;;;12.93;4.03;;;16.60;99.90;;;;;;5000328;28;20601;-47
2023/07/13 05:24:01;;;;;;;14.70;3.70;;;16.70;99.90;;;;;;5016466;28;20104;-46
2023/07/13 05:26:27;;;;;;;13.00;3.30;;;16.70;99.90;;;;;;5015900;28;20033;-48
2023/07/13 05:28:53;;;;;;;13.45;3.28;;;16.80;99.90;;;;;;5016435;28;20040;-48
2023/07/13 05:31:19;;;;;;;15.80;3.97;;;16.80;99.90;;;;;;4999289;28;20406;-47
2023/07/13 05:33:44;;;;;;;14.35;3.75;;;16.80;99.90;;;;;;5017263;28;20037;-50
2023/07/13 05:36:10;;;;;;;10.55;3.50;;;16.90;99.90;;;;;;4999772;28;20107;-50
2023/07/13 05:38:36;;;;;;;14.10;3.78;;;16.90;99.90;;;;;;4983294;28;20033;-48
2023/07/13 05:41:02;;;;;;;11.57;3.42;;;16.90;99.90;;;;;;4984042;28;20034;-48
2023/07/13 05:43:27;;;;;;;13.05;3.50;;;17.00;99.90;;;;;;5014569;28;20041;-51
2023/07/13 05:45:54;;;;;;;14.95;3.72;;;17.00;99.90;;;;;;4995978;28;20390;-48
2023/07/13 05:48:20;;;;;;;10.10;3.50;;;17.00;99.90;;;;;;5012168;28;20087;-50
2023/07/13 05:50:46;;;;;;;9.27;4.00;;;17.10;99.90;;;;;;5018259;28;20037;-47
2023/07/13 05:53:12;;;;;;;11.10;3.92;;;17.10;99.90;;;;;;5015715;28;20120;-50
2023/07/13 05:55:42;;;;;;;17.20;3.78;;;17.10;99.90;;;;;;5016042;28;20037;-52
2023/07/13 05:58:08;;;;;;;17.75;3.45;;;17.20;99.90;;;;;;5015742;28;20049;-48
2023/07/13 06:00:34;;;;;;;13.02;3.63;;;17.20;99.90;;;;;;5010149;28;20046;-47
2023/07/13 06:03:00;;;;;;;17.52;4.00;;;17.30;99.90;;;;;;5012212;28;20044;-49
2023/07/13 06:05:27;;;;;;;13.57;3.20;;;17.40;99.90;;;;;;5011998;28;20574;-50
2023/07/13 06:07:52;;;;;;;13.77;3.63;;;17.40;99.90;;;;;;4988526;28;20098;-50
2023/07/13 06:10:18;;;;;;;7.28;3.47;;;17.50;99.90;;;;;;4995011;28;20076;-51
2023/07/13 06:12:44;;;;;;;15.15;3.33;;;17.50;99.90;;;;;;5017894;28;20087;-48
2023/07/13 06:15:10;;;;;;;15.10;3.80;;;17.60;99.90;;;;;;4996789;28;20041;-49
2023/07/13 06:17:35;;;;;;;16.40;3.67;;;17.60;99.90;;;;;;5013933;28;20111;-49
2023/07/13 06:20:02;;;;;;;9.85;3.30;;;17.70;99.90;;;;;;5020743;28;20124;-48
2023/07/13 06:22:28;;;;;;;11.82;3.38;;;17.90;99.90;;;;;;5021416;28;20049;-46
2023/07/13 06:24:53;;;;;;;11.27;3.30;;;17.90;99.90;;;;;;5021370;28;20510;-48
2023/07/13 06:27:19;;;;;;;13.57;2.75;;;18.00;99.90;;;;;;5018128;28;20062;-47
2023/07/13 06:29:45;;;;;;;9.48;3.13;;;18.10;99.90;;;;;;5019754;28;20044;-49
2023/07/13 06:32:11;;;;;;;8.35;3.20;;;18.10;99.90;;;;;;5018490;28;20041;-48
2023/07/13 06:34:36;;;;;;;16.50;3.70;;;18.10;99.90;;;;;;5016503;28;20041;-51
2023/07/13 06:37:02;;;;;;;13.30;3.30;;;18.20;99.90;;;;;;5021016;28;20076;-49
2023/07/13 06:39:28;;;;;;;10.95;3.00;;;18.20;99.90;;;;;;5020748;28;20443;-50
2023/07/13 06:41:54;;;;;;;8.23;2.92;;;18.30;99.90;;;;;;5018838;28;20041;-46
2023/07/13 06:44:19;;;;;;;10.52;2.80;;;18.30;99.90;;;;;;5017601;28;20160;-48
2023/07/13 06:46:45;;;;;;;10.32;2.80;;;18.40;99.90;;;;;;5021507;28;20060;-49
2023/07/13 06:49:11;;;;;;;13.52;3.20;;;18.50;99.90;;;;;;5020539;28;20045;-49
2023/07/13 06:51:36;;;;;;;12.38;2.78;;;18.70;99.90;;;;;;5018228;28;20080;-48
2023/07/13 06:54:03;;;;;;;8.38;2.33;;;18.80;99.90;;;;;;4990749;28;20500;-47
2023/07/13 06:56:28;;;;;;;8.38;2.35;;;19.00;99.90;;;;;;5017949;28;20156;-48
2023/07/13 06:58:54;;;;;;;12.48;2.25;;;19.20;99.90;;;;;;5004123;28;20120;-49
2023/07/13 07:01:20;;;;;;;8.65;2.47;;;19.30;99.90;;;;;;5017291;28;20041;-47
2023/07/13 07:03:47;;;;;;;7.50;2.10;;;19.30;99.90;;;;;;5020063;28;20492;-51
2023/07/13 07:06:17;;;;;;;11.82;2.53;;;19.30;99.90;;;;;;5017550;28;20049;-49
2023/07/13 07:08:42;;;;;;;6.97;2.35;;;19.40;99.90;;;;;;5019162;28;20037;-47
2023/07/13 07:11:11;;;;;;;8.25;2.20;;;19.40;99.90;;;;;;5019227;28;20139;-49
2023/07/13 07:13:37;;;;;;;8.38;2.20;;;19.50;99.90;;;;;;5021218;28;20115;-48
2023/07/13 07:16:03;;;;;;;11.68;2.55;;;19.50;99.90;;;;;;5019509;28;20041;-50
2023/07/13 07:18:28;;;;;;;8.77;2.47;;;19.60;99.90;;;;;;5019211;28;20085;-48
2023/07/13 07:20:54;;;;;;;9.07;1.92;;;19.60;99.90;;;;;;5019971;28;20125;-48
2023/07/13 07:23:20;;;;;;;10.07;2.17;;;19.50;99.90;;;;;;5019318;28;20443;-49
2023/07/13 07:25:45;;;;;;;8.32;2.22;;;19.40;99.90;;;;;;5020657;28;20104;-49
2023/07/13 07:28:14;;;;;;;5.95;1.67;;;19.40;99.90;;;;;;5019719;28;20549;-49
2023/07/13 07:30:45;;;;;;;4.32;1.70;;;19.40;99.90;;;;;;5002623;28;20041;-49
2023/07/13 07:33:11;;;;;;;3.97;2.08;;;19.50;99.90;;;;;;5018355;28;20064;-49
2023/07/13 07:35:36;;;;;;;4.78;1.70;;;19.50;99.90;;;;;;5018762;28;20081;-50
2023/07/13 07:38:02;;;;;;;5.40;1.55;;;19.50;99.90;;;;;;5020287;28;20049;-48
2023/07/13 07:40:29;;;;;;;4.80;1.85;;;19.50;99.90;;;;;;5020780;28;20100;-49
2023/07/13 07:42:54;;;;;;;4.05;1.67;;;19.50;99.90;;;;;;5022288;28;20038;-50
2023/07/13 07:45:21;;;;;;;6.03;1.60;;;19.60;99.90;;;;;;5006190;28;20087;-48
2023/07/13 07:47:47;;;;;;;8.85;2.42;;;19.70;99.90;;;;;;5023084;28;20038;-47
2023/07/13 07:50:13;;;;;;;7.22;1.92;;;19.90;99.90;;;;;;5020329;28;20064;-48
2023/07/13 07:52:38;;;;;;;6.32;2.05;;;20.00;99.90;;;;;;5019744;28;20042;-47
2023/07/13 07:55:06;;;;;;;5.32;1.70;;;20.00;99.90;;;;;;5019009;28;20041;-49
2023/07/13 07:57:32;;;;;;;7.03;2.22;;;19.90;99.90;;;;;;5014431;28;20597;-50
2023/07/13 07:59:58;;;;;;;8.77;2.53;;;19.90;99.90;;;;;;5001184;28;20037;-47
2023/07/13 08:02:25;;;;;;;11.18;2.70;;;19.80;99.90;;;;;;5015675;28;20056;-49
2023/07/13 08:04:51;;;;;;;5.28;2.03;;;19.70;99.90;;;;;;5018832;28;20189;-48
2023/07/13 08:07:17;;;;;;;5.57;1.73;;;19.60;99.90;;;;;;5018709;28;20124;-50
2023/07/13 08:09:47;;;;;;;7.78;1.60;;;19.50;99.90;;;;;;5016013;28;20040;-49
2023/07/13 08:12:12;;;;;;;4.57;1.73;;;19.40;99.90;;;;;;5001013;28;20116;-52
2023/07/13 08:14:38;;;;;;;4.72;1.27;;;19.40;99.90;;;;;;5018111;28;20120;-52
2023/07/13 08:17:05;;;;;;;5.20;1.60;;;19.40;99.90;;;;;;5019779;28;20033;-52
2023/07/13 08:19:30;;;;;;;3.78;1.60;;;19.40;99.90;;;;;;5019578;28;20052;-52
2023/07/13 08:21:56;;;;;;;2.17;1.27;;;19.50;99.90;;;;;;4999235;28;20533;-51
2023/07/13 08:24:23;;;;;;;3.75;1.70;;;19.50;99.90;;;;;;5015806;28;20046;-52
2023/07/13 08:26:51;;;;;;;5.30;2.15;;;19.50;99.90;;;;;;4999536;28;20140;-52
2023/07/13 08:29:16;;;;;;;3.92;1.70;;;19.50;99.90;;;;;;5020485;28;20050;-52
2023/07/13 08:31:42;;;;;;;5.35;2.00;;;19.40;99.90;;;;;;5018247;28;20513;-51
2023/07/13 08:34:08;;;;;;;3.72;1.80;;;19.40;99.90;;;;;;5005291;28;20038;-51
2023/07/13 08:36:33;;;;;;;6.43;2.20;;;19.40;99.90;;;;;;4998356;28;20411;-53
2023/07/13 08:38:59;;;;;;;8.50;2.00;;;19.30;99.90;;;;;;5016140;28;20037;-52
2023/07/13 08:41:25;;;;;;;4.72;2.17;;;19.30;99.90;;;;;;5017707;28;20038;-51
2023/07/13 08:43:59;;;;;;;11.00;2.30;;;19.20;99.90;;;;;;5000403;28;20121;-50
2023/07/13 08:46:32;;;;;;;6.43;2.45;;;19.20;99.90;;;;;;5002291;28;20558;-52
2023/07/13 08:49:05;;;;;;;7.47;2.22;;;19.30;99.90;;;;;;5017114;28;20037;-52
2023/07/13 08:51:35;;;;;;;7.32;2.20;;;19.30;99.90;;;;;;5016846;28;20033;-53
2023/07/13 08:54:05;;;;;;;7.60;2.53;;;19.40;99.90;;;;;;4988520;28;20061;-53
2023/07/13 08:56:32;;;;;;;6.90;2.20;;;19.60;99.90;;;;;;5016348;28;20041;-53
2023/07/13 08:59:06;;;;;;;6.78;2.10;;;19.70;99.90;;;;;;5018803;28;20037;-52
2023/07/13 09:01:44;;;;;;;6.53;2.20;;;19.80;99.90;;;;;;5016579;28;20041;-49
2023/07/13 09:04:22;;;;;;;5.95;2.42;;;19.90;99.90;;;;;;5019026;28;20049;-52
2023/07/13 09:06:54;;;;;;;7.80;2.40;;;20.00;99.90;;;;;;5000386;28;20185;-53
2023/07/13 09:09:53;;;;;;;8.18;2.38;;;20.00;99.90;;;;;;5017282;28;20047;-54
2023/07/13 09:12:34;;;;;;;6.95;2.40;;;20.10;99.90;;;;;;5017414;28;20092;-50
2023/07/13 09:15:02;;;;;;;5.57;2.10;;;20.00;99.90;;;;;;5017138;28;20041;-50
2023/07/13 09:17:35;;;;;;;6.35;2.47;;;20.00;99.90;;;;;;5017243;28;20045;-52
2023/07/13 09:20:16;;;;;;;8.00;2.30;;;19.90;99.90;;;;;;5019201;28;20042;-49
2023/07/13 09:22:42;;;;;;;5.35;2.65;;;19.90;99.90;;;;;;5017132;28;20106;-49
2023/07/13 09:25:29;;;;;;;8.10;2.33;;;20.20;99.90;;;;;;5000216;28;20107;-53
2023/07/13 09:28:02;;;;;;;8.60;2.13;;;20.50;99.90;;;;;;5016649;28;20132;-50
2023/07/13 09:30:59;;;;;;;8.95;2.15;;;20.70;99.90;;;;;;5016900;28;20092;-51
2023/07/13 09:33:28;;;;;;;5.85;1.98;;;21.10;99.90;;;;;;5010317;28;20053;-51
2023/07/13 09:35:55;;;;;;;6.00;1.90;;;21.10;99.90;;;;;;5017101;28;20484;-50
2023/07/13 09:38:25;;;;;;;5.82;2.13;;;21.20;99.90;;;;;;5018093;28;20399;-54
2023/07/13 09:41:33;;;;;;;4.20;2.08;;;21.20;99.90;;;;;;5015848;28;20033;-53
2023/07/13 09:44:09;;;;;;;5.22;2.22;;;21.10;99.90;;;;;;5016605;28;20496;-50
2023/07/13 09:46:35;;;;;;;8.48;2.30;;;20.90;99.90;;;;;;4999602;28;20081;-51
2023/07/13 09:49:01;;;;;;;5.97;1.77;;;20.90;99.90;;;;;;5016551;28;20071;-52
2023/07/13 09:51:27;;;;;;;4.40;1.60;;;21.00;99.90;;;;;;4999290;28;20474;-51
2023/07/13 09:53:54;;;;;;;6.32;1.80;;;21.00;99.30;;;;;;5016197;28;20049;-49
2023/07/13 09:56:38;;;;;;;6.28;1.92;;;20.90;99.30;;;;;;5017120;28;20047;-52
2023/07/13 09:59:04;;;;;;;4.50;1.90;;;20.90;98.90;;;;;;4981229;28;20041;-52
2023/07/13 10:01:38;;;;;;;2.58;1.40;;;20.80;98.90;;;;;;4999382;28;20044;-51
2023/07/13 10:04:12;;;;;;;3.53;1.58;;;20.70;98.50;;;;;;5006819;28;20037;-51
2023/07/13 10:06:42;;;;;;;5.15;1.55;;;20.50;98.40;;;;;;4991778;28;20116;-52
2023/07/13 10:09:09;;;;;;;3.97;1.48;;;20.60;98.10;;;;;;5011893;28;20427;-54
2023/07/13 10:11:37;;;;;;;6.63;1.45;;;20.90;98.10;;;;;;5011656;28;20038;-50
2023/07/13 10:14:15;;;;;;;5.35;1.30;;;21.20;98.00;;;;;;5015714;28;20476;-50
2023/07/13 10:16:43;;;;;;;3.53;1.27;;;21.40;97.10;;;;;;5014031;28;20476;-52
2023/07/13 10:19:20;;;;;;;2.95;1.00;;;21.50;96.10;;;;;;5013906;28;20057;-50
2023/07/13 10:22:00;;;;;;;2.22;1.10;;;21.40;95.80;;;;;;5013698;28;20172;-51
2023/07/13 10:24:38;;;;;;;2.33;1.15;;;21.60;95.60;;;;;;5015904;28;20056;-52
2023/07/13 10:27:16;;;;;;;4.97;1.33;;;21.90;95.20;;;;;;5012427;28;20049;-53
2023/07/13 10:30:04;;;;;;;3.67;1.15;;;22.20;94.40;;;;;;5016204;28;20038;-51
2023/07/13 10:32:30;;;;;;;2.53;1.00;;;22.40;93.30;;;;;;5016006;28;20127;-53
2023/07/13 10:34:57;;;;;;;2.63;1.20;;;22.40;92.80;;;;;;5016598;28;20037;-52
2023/07/13 10:37:28;;;;;;;8.13;1.48;;;22.30;92.10;;;;;;5015655;28;20057;-53
2023/07/13 10:39:56;;;;;;;5.53;1.00;;;22.10;91.40;;;;;;4999071;28;20500;-53
2023/07/13 10:42:36;;;;;;;4.38;1.20;;;22.10;91.60;;;;;;5009083;28;20680;-54
2023/07/13 10:45:13;;;;;;;3.55;1.02;;;22.20;91.40;;;;;;5012184;28;20187;-52
2023/07/13 10:47:39;;;;;;;3.78;1.10;;;22.50;91.20;;;;;;5011482;28;20041;-53
2023/07/13 10:50:06;;;;;;;1.35;0.85;;;22.80;90.30;;;;;;5012858;28;20075;-52
2023/07/13 10:53:03;;;;;;;1.95;1.10;;;23.00;90.00;;;;;;5011291;28;20455;-50
2023/07/13 10:55:59;;;;;;;4.43;1.08;;;23.40;89.50;;;;;;4999806;28;20053;-51
2023/07/13 10:58:39;;;;;;;1.98;1.05;;;23.50;87.50;;;;;;5009337;28;20037;-52
2023/07/13 11:01:15;;;;;;;4.15;1.17;;;23.50;87.20;;;;;;5010485;28;20041;-52
2023/07/13 11:03:43;;;;;;;2.38;1.08;;;23.80;86.50;;;;;;5011560;28;20194;-53
2023/07/13 11:06:16;;;;;;;2.20;1.10;;;24.10;85.80;;;;;;5010320;28;20291;-54
2023/07/13 11:08:48;;;;;;;7.65;1.00;;;24.30;85.00;;;;;;5014389;28;20499;-52
2023/07/13 11:11:29;;;;;;;6.95;1.27;;;24.60;83.60;;;;;;5012810;28;20045;-53
2023/07/13 11:13:56;;;;;;;2.20;1.10;;;24.60;81.40;;;;;;5011225;28;20080;-51
2023/07/13 11:16:22;;;;;;;2.90;1.10;;;24.40;80.00;;;;;;5013008;28;20042;-53
2023/07/13 11:18:51;;;;;;;4.40;1.20;;;24.40;79.60;;;;;;5015739;28;20041;-53
2023/07/13 11:21:26;;;;;;;4.57;1.20;;;24.50;79.20;;;;;;5014609;28;20050;-54
2023/07/13 11:24:03;;;;;;;6.85;1.20;;;24.60;78.20;;;;;;5012572;28;20037;-53
2023/07/13 11:26:43;;;;;;;2.85;1.30;;;24.70;77.80;;;;;;5018026;28;20049;-53
2023/07/13 11:29:15;;;;;;;2.72;1.10;;;24.80;76.60;;;;;;5016125;28;20107;-53
2023/07/13 11:31:43;;;;;;;4.03;1.10;;;24.90;76.80;;;;;;5016208;28;20037;-55
2023/07/13 11:34:25;;;;;;;4.75;1.50;;;24.80;76.20;;;;;;4984584;28;22732;-54
2023/07/13 11:36:51;;;;;;;1.73;1.10;;;24.70;76.10;;;;;;5017332;28;20109;-53
2023/07/13 11:39:23;;;;;;;4.35;1.45;;;24.40;74.60;;;;;;5015201;28;20045;-54
2023/07/13 11:41:51;;;;;;;;;;;24.30;74.60;;;;;;5016067;28;20112;-53
2023/07/13 11:44:20;;;;;;;5.68;1.45;;;24.40;76.00;;;;;;4998752;28;19980;-53
2023/07/13 11:46:52;;;;;;;4.57;1.40;;;24.60;74.90;;;;;;5014950;28;20111;-54
2023/07/13 11:49:26;;;;;;;3.43;1.07;;;24.50;74.70;;;;;;5013843;28;20056;-54
2023/07/13 11:51:56;;;;;;;4.95;1.30;;;24.40;73.80;;;;;;5013309;28;20107;-54
2023/07/13 11:54:26;;;;;;;6.43;1.30;;;24.30;74.30;;;;;;5019958;28;20041;-53
2023/07/13 11:56:52;;;;;;;3.47;1.33;;;24.20;74.00;;;;;;5018411;28;20404;-54
2023/07/13 11:59:19;;;;;;;3.92;1.38;;;24.00;74.10;;;;;;5019349;28;20041;-54
2023/07/13 12:01:52;;;;;;;3.67;1.33;;;24.10;74.30;;;;;;5018002;28;20037;-54
2023/07/13 12:04:31;;;;;;;4.55;1.20;;;24.30;73.40;;;;;;5001716;28;20590;-53
2023/07/13 12:07:18;;;;;;;4.80;1.25;;;24.20;73.00;;;;;;5018095;28;20599;-54
2023/07/13 12:09:44;;;;;;;3.72;1.15;;;24.00;72.70;;;;;;5019447;28;20102;-53
2023/07/13 12:12:14;;;;;;;2.50;1.13;;;23.90;72.90;;;;;;5016676;28;20046;-53
2023/07/13 12:14:40;;;;;;;8.35;1.40;;;23.70;72.10;;;;;;5019353;28;20045;-54
2023/07/13 12:17:21;;;;;;;3.25;1.15;;;23.60;72.10;;;;;;5008635;28;20049;-53
2023/07/13 12:19:48;;;;;;;8.73;1.75;;;23.60;73.10;;;;;;5016353;28;20042;-52
2023/07/13 12:22:16;;;;;;;3.67;1.20;;;23.50;73.60;;;;;;5006559;28;20041;-53
2023/07/13 12:24:44;;;;;;;6.35;1.60;;;23.50;74.20;;;;;;5011935;28;20551;-55
2023/07/13 12:27:35;;;;;;;3.30;1.30;;;23.50;74.00;;;;;;5013021;28;20053;-54
2023/07/13 12:30:06;;;;;;;3.78;1.40;;;23.40;74.00;;;;;;5012126;28;20072;-53
2023/07/13 12:32:32;;;;;;;3.67;1.33;;;23.50;74.10;;;;;;5014206;28;20041;-53
2023/07/13 12:35:15;;;;;;;3.55;1.20;;;23.40;73.00;;;;;;4998374;28;20439;-54
2023/07/13 12:37:46;;;;;;;6.68;1.50;;;23.20;72.60;;;;;;5012944;28;20045;-52
2023/07/13 12:40:22;;;;;;;3.03;1.10;;;23.10;74.40;;;;;;5013464;28;20076;-51
2023/07/13 12:42:49;;;;;;;4.15;1.30;;;22.90;74.40;;;;;;5011579;28;20100;-53
2023/07/13 12:45:24;;;;;;;2.53;1.10;;;22.60;75.20;;;;;;5011815;28;20300;-52
2023/07/13 12:48:00;;;;;;;4.13;1.20;;;22.50;75.80;;;;;;5011310;28;20456;-49
2023/07/13 12:50:36;;;;;;;2.72;1.08;;;22.50;76.60;;;;;;5013277;28;20050;-52